Time;durP1;ratioP1;P1;durP2;ratioP2;P2;SDS_P1;SDS_P2;PMS_P1;PMS_P2;Temp;Humidity;BMP_temperature;BMP_pressure;BME280_temperature;BME280_humidity;BME280_pressure;Samples;Min_cycle;Max_cycle;Signal;HPM_P1;HPM_P2
2023/11/21 00:00:17;;;;;;;51.50;37.27;;;11.20;96.90;;;;;;5067898;28;20196;-64
2023/11/21 00:02:45;;;;;;;50.73;36.57;;;11.20;96.90;;;;;;5063633;28;20284;-64
2023/11/21 00:05:14;;;;;;;53.80;37.07;;;11.20;96.90;;;;;;5065126;28;20574;-64
2023/11/21 00:07:42;;;;;;;49.77;36.30;;;11.20;96.90;;;;;;5061135;28;20205;-64
2023/11/21 00:10:10;;;;;;;51.30;36.73;;;11.20;96.90;;;;;;5050659;28;20202;-64
2023/11/21 00:12:38;;;;;;;51.00;35.50;;;11.20;96.90;;;;;;5066655;28;20243;-64
2023/11/21 00:15:05;;;;;;;48.00;37.10;;;11.10;96.90;;;;;;5067029;28;20208;-64
2023/11/21 00:17:32;;;;;;;46.47;35.43;;;11.20;97.00;;;;;;5065226;28;20204;-64
2023/11/21 00:19:59;;;;;;;56.73;37.20;;;11.10;97.00;;;;;;5062038;28;20210;-64
2023/11/21 00:22:26;;;;;;;47.67;34.67;;;11.20;97.00;;;;;;5055116;28;20211;-64
2023/11/21 00:24:53;;;;;;;48.37;34.87;;;11.20;96.90;;;;;;5055351;28;20222;-64
2023/11/21 00:27:20;;;;;;;48.53;36.90;;;11.10;96.90;;;;;;5063148;28;20215;-64
2023/11/21 00:29:47;;;;;;;50.93;36.70;;;11.10;96.90;;;;;;5054346;28;20217;-64
2023/11/21 00:32:14;;;;;;;51.00;35.83;;;11.10;97.00;;;;;;5064249;28;20584;-64
2023/11/21 00:34:42;;;;;;;49.13;35.80;;;11.10;97.30;;;;;;5066497;28;20267;-64
2023/11/21 00:37:09;;;;;;;50.00;37.17;;;11.10;97.00;;;;;;5070386;28;20189;-64
2023/11/21 00:39:36;;;;;;;46.80;35.23;;;11.10;97.10;;;;;;5063795;28;20585;-64
2023/11/21 00:42:04;;;;;;;47.87;35.87;;;11.10;97.10;;;;;;5052152;28;20686;-64
2023/11/21 00:44:31;;;;;;;52.47;37.10;;;11.10;97.20;;;;;;5062159;28;20292;-64
2023/11/21 00:46:58;;;;;;;48.37;36.30;;;11.10;97.20;;;;;;5065636;28;20209;-64
2023/11/21 00:49:25;;;;;;;50.73;35.67;;;11.00;97.20;;;;;;5062805;28;20213;-64
2023/11/21 00:51:52;;;;;;;46.70;34.87;;;11.10;97.20;;;;;;5062534;28;20295;-64
2023/11/21 00:54:20;;;;;;;50.97;36.20;;;11.00;97.20;;;;;;5054422;28;20666;-64
2023/11/21 00:56:49;;;;;;;49.67;34.73;;;11.00;97.20;;;;;;5039706;28;20194;-64
2023/11/21 00:59:16;;;;;;;51.53;34.97;;;11.00;97.30;;;;;;5052684;28;20196;-64
2023/11/21 01:01:44;;;;;;;50.70;35.57;;;11.00;97.30;;;;;;5066219;28;20194;-64
2023/11/21 01:04:11;;;;;;;48.87;35.80;;;11.00;97.30;;;;;;5063346;28;20244;-64
2023/11/21 01:06:38;;;;;;;51.53;37.17;;;11.00;97.30;;;;;;5050479;28;20256;-64
2023/11/21 01:09:08;;;;;;;50.33;36.23;;;11.00;97.30;;;;;;5044819;28;20204;-64
2023/11/21 01:11:37;;;;;;;50.90;38.47;;;11.00;97.30;;;;;;5063597;28;20215;-64
2023/11/21 01:14:04;;;;;;;57.53;40.77;;;11.00;97.30;;;;;;5070644;28;20218;-64
2023/11/21 01:16:34;;;;;;;57.50;41.90;;;10.90;97.20;;;;;;5068127;28;20548;-64
2023/11/21 01:19:04;;;;;;;50.77;38.00;;;10.90;97.30;;;;;;5047656;28;20206;-64
2023/11/21 01:21:32;;;;;;;52.33;37.40;;;10.90;97.40;;;;;;5060629;28;20251;-64
2023/11/21 01:23:58;;;;;;;49.70;36.53;;;10.90;97.40;;;;;;5065374;28;20197;-64
2023/11/21 01:26:25;;;;;;;48.27;36.80;;;10.90;97.40;;;;;;5055900;28;20729;-64
2023/11/21 01:28:53;;;;;;;51.43;36.63;;;10.90;97.30;;;;;;5065110;28;20204;-64
2023/11/21 01:31:20;;;;;;;52.73;39.03;;;10.90;97.30;;;;;;5030156;28;20517;-64
2023/11/21 01:33:48;;;;;;;50.00;37.70;;;10.90;97.40;;;;;;5028075;28;20210;-64
2023/11/21 01:36:15;;;;;;;50.23;36.90;;;10.90;97.40;;;;;;5067734;28;20198;-64
2023/11/21 01:38:45;;;;;;;47.73;36.97;;;10.90;97.40;;;;;;5064982;28;20589;-64
2023/11/21 01:41:13;;;;;;;52.67;37.13;;;10.90;97.40;;;;;;5065408;28;20201;-64
2023/11/21 01:43:40;;;;;;;50.90;37.57;;;10.90;97.40;;;;;;5061254;28;20235;-64
2023/11/21 01:46:09;;;;;;;55.17;39.07;;;10.90;97.30;;;;;;5062155;28;20209;-64
2023/11/21 01:48:36;;;;;;;50.70;38.10;;;10.90;97.20;;;;;;5062996;28;20203;-64
2023/11/21 01:51:03;;;;;;;54.00;39.43;;;10.90;97.20;;;;;;5068461;28;20218;-64
2023/11/21 01:53:30;;;;;;;53.63;38.27;;;10.80;97.20;;;;;;5064562;28;20215;-64
2023/11/21 01:55:57;;;;;;;52.03;37.80;;;10.80;97.40;;;;;;5061850;28;20213;-64
2023/11/21 01:58:26;;;;;;;55.40;37.60;;;10.80;97.50;;;;;;5044690;28;20215;-64
2023/11/21 02:00:54;;;;;;;61.37;39.70;;;10.80;97.60;;;;;;5053716;28;20212;-64
2023/11/21 02:03:22;;;;;;;53.13;38.60;;;10.80;97.70;;;;;;5050789;28;20197;-64
2023/11/21 02:05:49;;;;;;;51.23;37.53;;;10.80;97.70;;;;;;5066084;28;20190;-64
2023/11/21 02:08:16;;;;;;;54.17;38.23;;;10.90;97.80;;;;;;5062071;28;20501;-64
2023/11/21 02:10:43;;;;;;;53.37;38.83;;;10.90;97.90;;;;;;5051396;28;20226;-64
2023/11/21 02:13:10;;;;;;;54.53;38.13;;;10.90;97.90;;;;;;5044735;28;20293;-64
2023/11/21 02:15:38;;;;;;;55.07;38.80;;;11.00;98.00;;;;;;5066690;28;20201;-64
2023/11/21 02:18:06;;;;;;;50.97;35.67;;;11.00;98.00;;;;;;5062704;28;20205;-64
2023/11/21 02:20:34;;;;;;;55.57;36.97;;;11.00;98.00;;;;;;5064377;28;20661;-64
2023/11/21 02:23:04;;;;;;;50.47;37.37;;;11.00;98.00;;;;;;5046081;28;20263;-64
2023/11/21 02:25:33;;;;;;;52.50;36.53;;;11.10;98.30;;;;;;5062383;28;20244;-64
2023/11/21 02:28:02;;;;;;;49.23;36.37;;;11.10;98.00;;;;;;5068761;28;20634;-64
2023/11/21 02:30:33;;;;;;;49.63;37.33;;;11.10;97.90;;;;;;5069461;28;20198;-64
2023/11/21 02:33:01;;;;;;;51.43;37.87;;;11.10;97.90;;;;;;5054666;28;20228;-63
2023/11/21 02:35:30;;;;;;;46.87;37.07;;;11.10;97.90;;;;;;5048287;28;20224;-64
2023/11/21 02:37:58;;;;;;;55.60;38.70;;;11.20;97.80;;;;;;5066058;28;20207;-64
2023/11/21 02:40:26;;;;;;;51.83;37.17;;;11.10;97.80;;;;;;5068829;28;20258;-64
2023/11/21 02:42:54;;;;;;;48.03;35.43;;;11.20;97.80;;;;;;5052807;28;20205;-64
2023/11/21 02:45:21;;;;;;;51.47;36.80;;;11.20;97.70;;;;;;5059700;28;20626;-64
2023/11/21 02:47:50;;;;;;;48.80;35.93;;;11.20;97.70;;;;;;5066673;28;20195;-64
2023/11/21 02:50:18;;;;;;;48.83;37.10;;;11.20;97.70;;;;;;5060670;28;20705;-64
2023/11/21 02:52:46;;;;;;;54.30;36.90;;;11.20;97.70;;;;;;5050647;28;20224;-64
2023/11/21 02:55:13;;;;;;;53.17;35.97;;;11.20;97.70;;;;;;5065575;28;20571;-64
2023/11/21 02:57:41;;;;;;;47.73;35.83;;;11.20;97.70;;;;;;5074432;28;20736;-64
2023/11/21 03:00:09;;;;;;;53.07;36.80;;;11.20;97.70;;;;;;5070825;28;20227;-64
2023/11/21 03:02:39;;;;;;;57.73;39.53;;;11.20;97.60;;;;;;5066170;28;20573;-64
2023/11/21 03:05:08;;;;;;;55.17;37.93;;;11.10;97.60;;;;;;5070087;28;20540;-64
2023/11/21 03:07:39;;;;;;;53.17;38.03;;;11.10;97.70;;;;;;5069122;28;20201;-64
2023/11/21 03:10:11;;;;;;;54.10;38.17;;;11.10;97.70;;;;;;5057120;28;20270;-64
2023/11/21 03:12:39;;;;;;;51.37;36.57;;;11.10;97.80;;;;;;5068021;28;20514;-64
2023/11/21 03:15:07;;;;;;;49.97;36.13;;;11.10;97.90;;;;;;5066527;28;20232;-64
2023/11/21 03:17:34;;;;;;;50.53;38.03;;;11.10;98.00;;;;;;5067513;28;20251;-64
2023/11/21 03:20:03;;;;;;;52.07;37.80;;;11.10;98.00;;;;;;5066674;28;20565;-64
2023/11/21 03:22:31;;;;;;;52.27;37.23;;;11.10;98.00;;;;;;5068791;28;20193;-64
2023/11/21 03:24:58;;;;;;;55.43;38.30;;;11.10;98.00;;;;;;5064298;28;20288;-64
2023/11/21 03:27:26;;;;;;;52.17;36.07;;;11.20;98.10;;;;;;5065504;28;20248;-64
2023/11/21 03:29:54;;;;;;;53.90;37.23;;;11.20;98.10;;;;;;5066602;28;20235;-64
2023/11/21 03:32:22;;;;;;;54.23;37.07;;;11.10;98.10;;;;;;5055280;28;20673;-64
2023/11/21 03:34:58;;;;;;;51.50;35.43;;;11.20;98.10;;;;;;5062230;28;20650;-64
2023/11/21 03:37:29;;;;;;;54.47;37.00;;;11.20;98.10;;;;;;5067299;28;20201;-64
2023/11/21 03:39:56;;;;;;;51.53;36.17;;;11.20;98.10;;;;;;5062963;28;20318;-64
2023/11/21 03:42:27;;;;;;;52.10;36.83;;;11.20;98.00;;;;;;5068978;28;20200;-64
2023/11/21 03:44:54;;;;;;;48.17;35.10;;;11.10;98.00;;;;;;5035326;28;20243;-64
2023/11/21 03:47:21;;;;;;;45.53;35.00;;;11.20;98.00;;;;;;5058439;28;20202;-64
2023/11/21 03:49:48;;;;;;;48.70;37.17;;;11.20;98.10;;;;;;5050847;28;21734;-64
2023/11/21 03:52:16;;;;;;;52.23;36.90;;;11.20;98.00;;;;;;5064527;28;20261;-64
2023/11/21 03:54:43;;;;;;;55.23;36.77;;;11.20;98.00;;;;;;5061188;28;20233;-64
2023/11/21 03:57:11;;;;;;;47.40;36.10;;;11.20;98.00;;;;;;5044552;28;20217;-64
2023/11/21 03:59:42;;;;;;;49.77;37.50;;;11.20;98.00;;;;;;5052830;28;20194;-64
2023/11/21 04:02:09;;;;;;;51.90;35.77;;;11.20;98.00;;;;;;5065571;28;20201;-64
2023/11/21 04:04:36;;;;;;;48.27;37.57;;;11.20;98.00;;;;;;5068114;28;20248;-64
2023/11/21 04:07:04;;;;;;;48.17;35.53;;;11.20;98.00;;;;;;5066302;28;20263;-65
2023/11/21 04:09:31;;;;;;;48.27;36.40;;;11.20;98.00;;;;;;5060312;28;20214;-64
2023/11/21 04:11:58;;;;;;;49.27;36.20;;;11.20;98.00;;;;;;5058500;28;20209;-64
2023/11/21 04:14:26;;;;;;;53.47;38.33;;;11.20;98.00;;;;;;5061522;28;20580;-64
2023/11/21 04:16:53;;;;;;;51.00;36.90;;;11.20;98.00;;;;;;5063616;28;20270;-64
2023/11/21 04:19:21;;;;;;;52.57;37.63;;;11.20;98.00;;;;;;5059527;28;20198;-64
2023/11/21 04:21:48;;;;;;;49.53;38.10;;;11.20;98.00;;;;;;5066818;28;20201;-64
2023/11/21 04:24:15;;;;;;;55.20;37.77;;;11.20;98.00;;;;;;5061968;28;20208;-64
2023/11/21 04:26:44;;;;;;;50.30;37.77;;;11.20;98.00;;;;;;5065132;28;20229;-64
2023/11/21 04:29:11;;;;;;;49.57;37.83;;;11.20;98.00;;;;;;5064702;28;20268;-64
2023/11/21 04:31:38;;;;;;;51.23;37.13;;;11.30;98.00;;;;;;5065594;28;20281;-64
2023/11/21 04:34:05;;;;;;;46.97;36.77;;;11.20;98.00;;;;;;5070673;28;20226;-64
2023/11/21 04:36:32;;;;;;;46.03;36.10;;;11.30;98.00;;;;;;5068528;28;20220;-64
2023/11/21 04:38:59;;;;;;;57.67;39.10;;;11.20;98.00;;;;;;5063654;28;20293;-64
2023/11/21 04:41:26;;;;;;;53.57;38.83;;;11.20;98.00;;;;;;5064067;28;20208;-64
2023/11/21 04:43:53;;;;;;;57.63;38.63;;;11.30;98.00;;;;;;5060395;28;20199;-64
2023/11/21 04:46:20;;;;;;;56.03;38.40;;;11.20;98.00;;;;;;5062748;28;20220;-64
2023/11/21 04:48:47;;;;;;;46.43;36.47;;;11.20;98.00;;;;;;5062071;28;20211;-64
2023/11/21 04:51:14;;;;;;;56.60;40.40;;;11.20;98.00;;;;;;5062235;28;20205;-64
2023/11/21 04:53:41;;;;;;;52.93;40.17;;;11.20;97.90;;;;;;5064594;28;20521;-64
2023/11/21 04:56:08;;;;;;;52.77;37.17;;;11.20;97.90;;;;;;5065210;28;20285;-64
2023/11/21 04:58:36;;;;;;;54.43;37.07;;;11.20;97.90;;;;;;5066771;28;20202;-64
2023/11/21 05:01:03;;;;;;;49.43;35.37;;;11.20;97.80;;;;;;5061791;28;20190;-64
2023/11/21 05:03:34;;;;;;;52.93;37.50;;;11.20;97.90;;;;;;5063420;28;20241;-64
2023/11/21 05:06:02;;;;;;;52.03;37.00;;;11.20;98.00;;;;;;5065668;28;20271;-64
2023/11/21 05:08:29;;;;;;;54.43;38.37;;;11.20;98.00;;;;;;5067041;28;20661;-64
2023/11/21 05:10:56;;;;;;;51.97;37.33;;;11.20;98.00;;;;;;5057290;28;20230;-64
2023/11/21 05:13:27;;;;;;;53.90;39.77;;;11.20;98.00;;;;;;5060726;28;20195;-64
2023/11/21 05:15:57;;;;;;;48.10;36.57;;;11.20;98.00;;;;;;5063572;28;20274;-64
2023/11/21 05:18:27;;;;;;;49.30;36.10;;;11.20;98.10;;;;;;5061875;28;20641;-64
2023/11/21 05:20:54;;;;;;;52.17;37.20;;;11.20;98.10;;;;;;5062430;28;20230;-64
2023/11/21 05:23:21;;;;;;;51.63;39.00;;;11.20;98.00;;;;;;5058682;28;20686;-64
2023/11/21 05:25:48;;;;;;;59.70;39.33;;;11.20;98.00;;;;;;5064005;28;20201;-64
2023/11/21 05:28:15;;;;;;;53.10;37.33;;;11.20;98.00;;;;;;5062625;28;20219;-64
2023/11/21 05:30:42;;;;;;;54.90;38.23;;;11.20;97.90;;;;;;5062840;28;20240;-64
2023/11/21 05:33:09;;;;;;;51.60;35.20;;;11.20;97.90;;;;;;5059961;28;20206;-64
2023/11/21 05:35:36;;;;;;;50.60;37.87;;;11.20;97.90;;;;;;5070521;28;20225;-64
2023/11/21 05:38:03;;;;;;;50.90;38.13;;;11.20;98.00;;;;;;5059926;28;20636;-64
2023/11/21 05:40:30;;;;;;;50.63;36.83;;;11.20;98.00;;;;;;5065602;28;20194;-64
2023/11/21 05:42:57;;;;;;;51.67;37.80;;;11.20;98.00;;;;;;5061217;28;20205;-64
2023/11/21 05:45:24;;;;;;;49.97;37.90;;;11.20;98.10;;;;;;5070189;28;20220;-64
2023/11/21 05:47:52;;;;;;;53.40;36.23;;;11.20;98.10;;;;;;5058994;28;20209;-64
2023/11/21 05:50:19;;;;;;;47.27;35.57;;;11.20;98.20;;;;;;5063071;28;20233;-64
2023/11/21 05:52:47;;;;;;;55.10;37.30;;;11.20;98.20;;;;;;5062228;28;20684;-64
2023/11/21 05:55:15;;;;;;;51.40;38.03;;;11.20;98.20;;;;;;5061335;28;20244;-64
2023/11/21 05:57:43;;;;;;;52.17;38.47;;;11.10;98.20;;;;;;5063630;28;20261;-64
2023/11/21 06:00:21;;;;;;;51.90;36.37;;;11.20;98.20;;;;;;5069266;28;20201;-64
2023/11/21 06:02:53;;;;;;;52.87;36.67;;;11.10;98.20;;;;;;5066700;28;20271;-64
2023/11/21 06:05:26;;;;;;;50.27;37.43;;;11.20;98.30;;;;;;5070654;28;20550;-64
2023/11/21 06:07:58;;;;;;;58.87;39.60;;;11.20;98.30;;;;;;5067027;28;20211;-64
2023/11/21 06:10:26;;;;;;;51.80;38.90;;;11.20;98.30;;;;;;5067274;28;20216;-64
2023/11/21 06:12:53;;;;;;;53.47;39.87;;;11.10;98.30;;;;;;5063875;28;20277;-64
2023/11/21 06:15:22;;;;;;;55.30;40.07;;;11.20;98.30;;;;;;5065516;28;20559;-64
2023/11/21 06:17:52;;;;;;;54.57;40.40;;;11.20;98.20;;;;;;5065888;28;20252;-64
2023/11/21 06:20:21;;;;;;;57.63;41.57;;;11.20;98.20;;;;;;5063243;28;20211;-64
2023/11/21 06:22:51;;;;;;;58.07;41.40;;;11.20;98.20;;;;;;5064939;28;20209;-64
2023/11/21 06:25:18;;;;;;;60.13;40.53;;;11.20;98.20;;;;;;5065762;28;20200;-64
2023/11/21 06:27:47;;;;;;;62.23;44.17;;;11.10;98.20;;;;;;5063315;28;20513;-64
2023/11/21 06:30:15;;;;;;;55.30;41.97;;;11.10;98.10;;;;;;5066901;28;20205;-64
2023/11/21 06:32:45;;;;;;;62.60;42.30;;;11.10;98.00;;;;;;5064041;28;20280;-64
2023/11/21 06:35:15;;;;;;;58.63;40.83;;;11.10;97.90;;;;;;5071357;28;20221;-63
2023/11/21 06:37:47;;;;;;;56.73;40.90;;;11.10;97.90;;;;;;5064416;28;20211;-64
2023/11/21 06:40:20;;;;;;;60.13;42.80;;;11.00;97.80;;;;;;5068797;28;20201;-64
2023/11/21 06:42:48;;;;;;;56.37;41.93;;;11.00;97.90;;;;;;5065008;28;20211;-64
2023/11/21 06:45:16;;;;;;;54.93;41.47;;;11.00;98.00;;;;;;5058795;28;20290;-64
2023/11/21 06:47:44;;;;;;;58.70;41.77;;;10.90;98.00;;;;;;5065825;28;20208;-64
2023/11/21 06:50:11;;;;;;;62.57;43.33;;;10.90;98.10;;;;;;5062588;28;20250;-64
2023/11/21 06:52:38;;;;;;;55.23;41.50;;;10.90;98.20;;;;;;5066817;28;20644;-64
2023/11/21 06:55:08;;;;;;;60.13;42.47;;;10.80;98.20;;;;;;5064929;28;20233;-64
2023/11/21 06:57:36;;;;;;;56.90;40.30;;;10.80;98.30;;;;;;5062701;28;20294;-64
2023/11/21 07:00:03;;;;;;;57.93;41.13;;;10.80;98.30;;;;;;5072401;28;20275;-64
2023/11/21 07:02:31;;;;;;;61.47;42.27;;;10.80;98.30;;;;;;5065176;28;20704;-64
2023/11/21 07:04:58;;;;;;;56.37;41.57;;;10.80;98.30;;;;;;5069302;28;20647;-64
2023/11/21 07:07:25;;;;;;;61.33;41.07;;;10.80;98.40;;;;;;5071112;28;20838;-64
2023/11/21 07:09:52;;;;;;;56.70;41.93;;;10.80;98.40;;;;;;5064862;28;20201;-64
2023/11/21 07:12:19;;;;;;;60.20;41.77;;;10.80;98.40;;;;;;5067013;28;20631;-63
2023/11/21 07:14:46;;;;;;;62.97;42.67;;;10.80;98.40;;;;;;5064436;28;20281;-63
2023/11/21 07:17:13;;;;;;;58.40;42.60;;;10.90;98.50;;;;;;5066076;28;20200;-63
2023/11/21 07:19:41;;;;;;;60.33;43.10;;;10.90;98.50;;;;;;5062129;28;20630;-63
2023/11/21 07:22:08;;;;;;;63.10;41.57;;;10.90;98.80;;;;;;5064429;28;20755;-63
2023/11/21 07:24:36;;;;;;;54.80;40.97;;;10.90;98.60;;;;;;5070027;28;20213;-63
2023/11/21 07:27:04;;;;;;;61.03;44.23;;;11.00;98.70;;;;;;5066065;28;20588;-63
2023/11/21 07:29:31;;;;;;;62.33;42.47;;;11.00;98.70;;;;;;5066407;28;20202;-63
2023/11/21 07:31:58;;;;;;;61.47;41.37;;;11.00;98.70;;;;;;5061773;28;20195;-63
2023/11/21 07:34:25;;;;;;;61.27;43.43;;;11.10;98.70;;;;;;5050876;28;20210;-63
2023/11/21 07:36:52;;;;;;;59.20;41.97;;;11.10;98.70;;;;;;5069462;28;20208;-63
2023/11/21 07:39:19;;;;;;;61.00;43.50;;;11.10;98.70;;;;;;5061464;28;20213;-63
2023/11/21 07:41:48;;;;;;;60.50;42.07;;;11.20;98.70;;;;;;5065603;28;20209;-63
2023/11/21 07:44:19;;;;;;;59.13;44.03;;;11.20;98.60;;;;;;5065812;28;20693;-63
2023/11/21 07:46:49;;;;;;;54.43;42.47;;;11.30;98.60;;;;;;5061719;28;20216;-63
2023/11/21 07:49:20;;;;;;;53.70;39.93;;;11.40;98.60;;;;;;5065638;28;20206;-63
2023/11/21 07:51:47;;;;;;;55.37;40.40;;;11.40;98.50;;;;;;5065762;28;20640;-63
2023/11/21 07:54:15;;;;;;;54.27;41.73;;;11.40;98.40;;;;;;5065933;28;20199;-63
2023/11/21 07:56:43;;;;;;;54.40;41.27;;;11.50;98.40;;;;;;5042662;28;20309;-63
2023/11/21 07:59:10;;;;;;;56.90;42.17;;;11.50;98.30;;;;;;5057956;28;20373;-63
2023/11/21 08:01:37;;;;;;;59.00;42.40;;;11.50;98.30;;;;;;5059655;28;20194;-63
2023/11/21 08:04:06;;;;;;;58.93;41.53;;;11.60;98.30;;;;;;5068142;28;20589;-63
2023/11/21 08:06:33;;;;;;;55.90;41.73;;;11.50;98.20;;;;;;5052663;28;20206;-63
2023/11/21 08:09:00;;;;;;;57.57;41.70;;;11.60;98.20;;;;;;5063811;28;20266;-63
2023/11/21 08:11:31;;;;;;;56.97;42.87;;;11.60;98.10;;;;;;5053881;28;20202;-63
2023/11/21 08:13:58;;;;;;;59.40;42.07;;;11.60;98.10;;;;;;5066433;28;20197;-63
2023/11/21 08:16:27;;;;;;;60.87;43.07;;;11.70;98.10;;;;;;5066390;28;20549;-63
2023/11/21 08:18:54;;;;;;;54.17;40.90;;;11.60;98.10;;;;;;5063695;28;20220;-63
2023/11/21 08:21:23;;;;;;;57.70;42.10;;;11.70;98.10;;;;;;5066488;28;20285;-63
2023/11/21 08:23:54;;;;;;;61.70;44.40;;;11.70;98.10;;;;;;5061876;28;20671;-63
2023/11/21 08:26:22;;;;;;;56.17;41.10;;;11.70;98.10;;;;;;5067072;28;20223;-63
2023/11/21 08:28:52;;;;;;;57.90;43.60;;;11.80;98.10;;;;;;5063954;28;20278;-63
2023/11/21 08:31:25;;;;;;;54.40;40.10;;;11.80;98.00;;;;;;5065158;28;20214;-63
2023/11/21 08:33:55;;;;;;;60.33;44.43;;;11.90;97.90;;;;;;5065271;28;20525;-63
2023/11/21 08:36:24;;;;;;;58.23;42.30;;;11.80;97.90;;;;;;5069636;28;20241;-63
2023/11/21 08:38:54;;;;;;;58.90;42.37;;;11.80;97.90;;;;;;5068331;28;20284;-63
2023/11/21 08:41:21;;;;;;;56.17;43.47;;;11.90;97.90;;;;;;5063922;28;20197;-63
2023/11/21 08:43:51;;;;;;;55.80;42.20;;;11.90;97.90;;;;;;5060466;28;20522;-63
2023/11/21 08:46:19;;;;;;;54.80;42.10;;;11.90;97.90;;;;;;5062226;28;20629;-63
2023/11/21 08:48:47;;;;;;;58.43;44.07;;;12.00;97.90;;;;;;5062073;28;20220;-63
2023/11/21 08:51:14;;;;;;;59.30;45.57;;;12.00;97.90;;;;;;5066932;28;20646;-63
2023/11/21 08:53:41;;;;;;;59.80;43.63;;;12.00;97.90;;;;;;5056252;28;20625;-63
2023/11/21 08:56:12;;;;;;;59.10;43.67;;;12.00;97.90;;;;;;5065846;28;20201;-63
2023/11/21 08:58:39;;;;;;;61.10;44.77;;;12.00;97.90;;;;;;5061716;28;20190;-63
2023/11/21 09:01:07;;;;;;;67.13;46.87;;;12.10;97.90;;;;;;5066084;28;20216;-64
2023/11/21 09:03:34;;;;;;;65.13;47.30;;;12.10;97.80;;;;;;5063782;28;20232;-64
2023/11/21 09:06:01;;;;;;;60.60;45.93;;;12.10;97.70;;;;;;5066992;28;20218;-63
2023/11/21 09:08:29;;;;;;;61.97;46.53;;;12.10;97.60;;;;;;5063659;28;20242;-63
2023/11/21 09:10:56;;;;;;;59.27;46.43;;;12.10;97.60;;;;;;5054481;28;20221;-63
2023/11/21 09:13:25;;;;;;;63.67;46.47;;;12.10;97.70;;;;;;5062234;28;20275;-63
2023/11/21 09:15:52;;;;;;;62.53;47.53;;;12.10;97.70;;;;;;5062593;28;20224;-63
2023/11/21 09:18:19;;;;;;;63.33;47.77;;;12.20;97.80;;;;;;5061910;28;20207;-63
2023/11/21 09:20:46;;;;;;;68.53;47.57;;;12.20;97.80;;;;;;5065780;28;20545;-63
2023/11/21 09:23:13;;;;;;;70.90;48.03;;;12.20;97.80;;;;;;5063361;28;20286;-63
2023/11/21 09:25:40;;;;;;;66.77;48.03;;;12.20;97.70;;;;;;5063376;28;20281;-63
2023/11/21 09:28:07;;;;;;;66.77;47.67;;;12.20;97.60;;;;;;5065737;28;20215;-63
2023/11/21 09:30:35;;;;;;;66.83;46.67;;;12.20;97.50;;;;;;5037298;28;20235;-63
2023/11/21 09:33:07;;;;;;;61.20;48.40;;;12.20;97.50;;;;;;5049689;28;20215;-63
2023/11/21 09:35:34;;;;;;;65.17;47.40;;;12.30;97.50;;;;;;5068009;28;20225;-64
2023/11/21 09:38:05;;;;;;;65.13;47.40;;;12.30;97.40;;;;;;5058518;28;20654;-64
2023/11/21 09:40:32;;;;;;;64.10;48.17;;;12.30;97.30;;;;;;5051009;28;20270;-64
2023/11/21 09:43:02;;;;;;;70.87;49.20;;;12.30;97.20;;;;;;5063300;28;20270;-64
2023/11/21 09:45:34;;;;;;;65.80;50.00;;;12.20;97.20;;;;;;5055367;28;20205;-64
2023/11/21 09:48:02;;;;;;;66.53;48.53;;;12.30;97.30;;;;;;5061530;28;20523;-63
2023/11/21 09:50:31;;;;;;;66.90;49.83;;;12.30;97.30;;;;;;5052236;28;20213;-63
2023/11/21 09:53:20;;;;;;;71.03;47.97;;;12.30;97.40;;;;;;5049376;28;20667;-64
2023/11/21 09:55:52;;;;;;;69.63;48.33;;;12.30;97.50;;;;;;5066180;28;20218;-63
2023/11/21 09:58:21;;;;;;;68.50;49.00;;;12.30;97.50;;;;;;5059923;28;20575;-63
2023/11/21 10:00:52;;;;;;;73.00;49.60;;;12.30;97.50;;;;;;5061123;28;20292;-63
2023/11/21 10:03:19;;;;;;;70.67;50.13;;;12.30;97.50;;;;;;5062906;28;20525;-63
2023/11/21 10:05:50;;;;;;;74.00;49.97;;;12.30;97.50;;;;;;5064884;28;20209;-63
2023/11/21 10:08:19;;;;;;;73.77;49.23;;;12.30;97.40;;;;;;5070119;28;20197;-63
2023/11/21 10:10:51;;;;;;;71.93;52.07;;;12.30;97.40;;;;;;5054219;28;20205;-63
2023/11/21 10:13:19;;;;;;;71.00;49.00;;;12.30;97.40;;;;;;5041342;28;20220;-63
2023/11/21 10:15:51;;;;;;;69.60;51.93;;;12.20;97.40;;;;;;5061449;28;20223;-63
2023/11/21 10:18:19;;;;;;;73.77;50.50;;;12.20;97.30;;;;;;5059253;28;20203;-63
2023/11/21 10:20:51;;;;;;;71.13;51.70;;;12.20;97.30;;;;;;5068961;28;20209;-64
2023/11/21 10:23:22;;;;;;;71.33;50.17;;;12.10;97.30;;;;;;5057839;28;20230;-64
2023/11/21 10:25:52;;;;;;;75.87;51.93;;;12.10;97.40;;;;;;5061301;28;20205;-64
2023/11/21 10:28:20;;;;;;;75.73;54.80;;;12.10;97.50;;;;;;5066504;28;20208;-64
2023/11/21 10:30:48;;;;;;;77.23;52.97;;;12.10;97.80;;;;;;5063442;28;20627;-64
2023/11/21 10:33:15;;;;;;;76.70;54.10;;;12.00;97.60;;;;;;5063684;28;20204;-64
2023/11/21 10:35:46;;;;;;;74.77;53.93;;;12.00;97.70;;;;;;5066416;28;20227;-64
2023/11/21 10:38:14;;;;;;;75.77;52.93;;;12.00;97.80;;;;;;5045681;28;20263;-65
2023/11/21 10:40:42;;;;;;;75.77;54.77;;;11.90;97.90;;;;;;5063300;28;20533;-65
2023/11/21 10:43:10;;;;;;;76.53;52.03;;;11.90;98.10;;;;;;5060648;28;20289;-65
2023/11/21 10:45:37;;;;;;;79.07;52.93;;;11.80;98.30;;;;;;5064953;28;20225;-65
2023/11/21 10:48:17;;;;;;;76.03;54.37;;;11.80;98.40;;;;;;5061625;28;20225;-65
2023/11/21 10:50:46;;;;;;;76.87;54.23;;;11.80;98.50;;;;;;5067012;28;20197;-65
2023/11/21 10:53:14;;;;;;;74.20;53.83;;;11.80;98.60;;;;;;5065868;28;20224;-65
2023/11/21 10:55:44;;;;;;;84.33;56.80;;;11.80;98.70;;;;;;5065830;28;20530;-65
2023/11/21 10:58:14;;;;;;;81.33;52.90;;;11.80;98.70;;;;;;5066214;28;20194;-65
2023/11/21 11:00:43;;;;;;;75.43;55.60;;;11.80;98.80;;;;;;5061245;28;20285;-65
2023/11/21 11:03:14;;;;;;;83.87;53.93;;;11.90;98.90;;;;;;5066421;28;20208;-65
2023/11/21 11:06:02;;;;;;;78.53;53.03;;;11.90;99.00;;;;;;5068807;28;20198;-65
2023/11/21 11:08:29;;;;;;;82.30;54.27;;;11.90;99.10;;;;;;5069698;28;20631;-65
2023/11/21 11:10:58;;;;;;;78.13;55.43;;;12.00;99.10;;;;;;5061011;28;20213;-65
2023/11/21 11:13:25;;;;;;;78.57;54.50;;;12.00;99.20;;;;;;5061321;28;20214;-65
2023/11/21 11:16:10;;;;;;;81.77;57.27;;;12.10;99.20;;;;;;5067604;28;20219;-65
2023/11/21 11:18:37;;;;;;;80.10;55.10;;;12.10;99.30;;;;;;5065840;28;20203;-65
2023/11/21 11:21:41;;;;;;;80.67;56.70;;;12.20;99.30;;;;;;5066810;28;20285;-65
2023/11/21 11:24:08;;;;;;;88.20;57.27;;;12.20;99.30;;;;;;5061703;28;20198;-65
2023/11/21 11:27:01;;;;;;;82.97;57.73;;;12.30;99.30;;;;;;5062961;28;20517;-65
2023/11/21 11:29:35;;;;;;;86.90;56.30;;;12.30;99.30;;;;;;5063456;28;20275;-64
2023/11/21 11:32:23;;;;;;;83.77;57.07;;;12.30;99.20;;;;;;5064378;28;20669;-64
2023/11/21 11:35:10;;;;;;;77.53;55.03;;;12.30;99.20;;;;;;5062522;28;20203;-65
2023/11/21 11:37:37;;;;;;;78.40;54.07;;;12.30;99.20;;;;;;5062139;28;20570;-65
2023/11/21 11:40:06;;;;;;;78.90;58.07;;;12.40;99.20;;;;;;5066204;28;20198;-64
2023/11/21 11:42:33;;;;;;;79.63;59.00;;;12.30;99.20;;;;;;5063860;28;20201;-65
2023/11/21 11:45:00;;;;;;;77.47;57.20;;;12.40;99.30;;;;;;5069342;28;20202;-65
2023/11/21 11:47:32;;;;;;;81.33;57.07;;;12.40;99.30;;;;;;5062691;28;20220;-64
2023/11/21 11:50:19;;;;;;;82.47;57.10;;;12.50;99.30;;;;;;5064145;28;20199;-64
2023/11/21 11:52:50;;;;;;;75.00;56.23;;;12.40;99.30;;;;;;5065103;28;20654;-64
2023/11/21 11:55:19;;;;;;;80.47;54.57;;;12.40;99.30;;;;;;5063657;28;20213;-64
2023/11/21 11:57:48;;;;;;;76.27;54.70;;;12.40;99.20;;;;;;5063693;28;20257;-64
2023/11/21 12:00:18;;;;;;;77.37;54.63;;;12.40;99.30;;;;;;5058855;28;20222;-64
2023/11/21 12:02:47;;;;;;;82.37;55.37;;;12.40;99.30;;;;;;5047582;28;20201;-64
2023/11/21 12:05:17;;;;;;;77.50;54.97;;;12.40;99.30;;;;;;5067487;28;20539;-64
2023/11/21 12:07:48;;;;;;;81.00;57.13;;;12.30;99.30;;;;;;5062554;28;20240;-64
2023/11/21 12:10:17;;;;;;;78.37;57.67;;;12.30;99.40;;;;;;5061812;28;20232;-64
2023/11/21 12:12:48;;;;;;;82.80;56.63;;;12.30;99.40;;;;;;5061208;28;20216;-64
2023/11/21 12:15:16;;;;;;;87.50;56.87;;;12.40;99.50;;;;;;5063255;28;20202;-64
2023/11/21 12:17:44;;;;;;;85.23;57.93;;;12.40;99.50;;;;;;5067357;28;20231;-64
2023/11/21 12:20:17;;;;;;;78.10;56.90;;;12.40;99.60;;;;;;5061460;28;20197;-64
2023/11/21 12:22:49;;;;;;;79.30;58.03;;;12.50;99.60;;;;;;5065497;28;20193;-64
2023/11/21 12:25:18;;;;;;;84.83;58.50;;;12.50;99.60;;;;;;5059680;28;20257;-64
2023/11/21 12:27:51;;;;;;;86.93;59.30;;;12.50;99.50;;;;;;5067463;28;20281;-64
2023/11/21 12:30:21;;;;;;;86.23;58.87;;;12.60;99.60;;;;;;5062454;28;20208;-64
2023/11/21 12:32:53;;;;;;;77.43;57.93;;;12.60;99.60;;;;;;5060689;28;20240;-65
2023/11/21 12:35:24;;;;;;;87.70;59.37;;;12.60;99.60;;;;;;5069100;28;20209;-65